Accueil
METAR-TAF:

METAR-TAF

Aéroports :

Elsenborn

Butgenbach, Belgique

latitude: 50-28N, longitude: 006-11E, altitude: 564 m

Observation

Le bulletin a été fait il y a 55 minutes, à 12:25 UTC
Vent 5 kt de est/nord-est avec des rafales jusqu'à 17 kt
Température 22°C
Humidité 38%
Pression 1022 hPa
Visibilité 10 km ou plus

METAR: EBLB 011225Z AUTO 07005G17KT 9999 NCD 22/07 Q1022 BLU

Heure: 15:20 (13:20 UTC)


TAF: absent

Observations et prévisions météorologiques de plus de 4000 aéroports (messages METAR et TAF).

Les stations disponibles sont représentées par des disques jaunes et rouges sur la carte.

Passer la souris dessus pour voir le nom de la station.

Cliquer dessus pour voir les observations et prévisions météorologiques.

Pour changer de carte: cliquez sur les boutons verts avec une croix noire pour zoomer, sur le bouton vert avec un tiret pour effectuer un zoom arrière, ou sur les flèches vertes pour les cartes adjacentes.


METAR-TAF: